Crescent City, CA

1:33 PM PDT on September 17, 2014 (GMT -0700)
McNamara | Change Station
CLOSE
Current Station
Airport
Location: Crescent City,
Elevation: 56 ft
Nearby Weather Stations

Elev 56 ft 41.78 °N, 124.24 °W | Updated 37 minutes ago

Overcast
Overcast
60 °F
Feels Like 60 °F
N
5
Wind Variable Wind from ESE

Today
High -- | Low -- °F
--% Chance of Precip.
Yesterday
High -- | Low -- °F
Precip. -- in
6:59 AM 7:22 PM
Waning Crescent, 33% visible
Pressure 29.81 in
Visibility 10.0 miles
Clouds Overcast 1000 ft
Dew Point 57 °F
Humidity 90%
Rainfall 0.00 in
Snow Depth 1 in , 1 in , 0 in
UV 2 out of 12
Pollen 4.20 out of 12
Air Quality Not available.
Flu Activity Not available.
METAR KCEC 171956Z AUTO 12004KT 10SM OVC010 16/14 A2980 RMK AO2 RAE37 SLP092 P0000 T01560139

More Conditions Fewer Conditions

Pressure 29.81 in
Visibility 10.0 miles
Clouds Overcast 1000 ft
Dew Point 57 °F
Humidity 90%
Rainfall 0.00 in
Snow Depth 1 in , 1 in , 0 in
UV 2 out of 12
Pollen 4.20 out of 12
Air Quality Not available.
Flu Activity Not available.
METAR KCEC 171956Z AUTO 12004KT 10SM OVC010 16/14 A2980 RMK AO2 RAE37 SLP092 P0000 T01560139

More Conditions Fewer Conditions

10-Day Weather Forecast

Almanac

Astronomy

Sep. 17, 2014 Rise Set
Actual Time 6:59 AM PDT 7:22 PM PDT
Civil Twilight 6:31 AM PDT 7:50 PM PDT
Nautical Twilight 5:58 AM PDT 8:23 PM PDT
Astronomical Twilight 5:24 AM PDT 8:56 PM PDT
Moon 1:00 AM PDT 3:40 PM PDT
Length of Visible Light 13h 19m
Length of Day
12h 23m
Tomorrow will be 2m 45s shorter.
Waning Crescent, 33% of the Moon is Illuminated
Today
Waning Crescent
Sep 24
New
Oct 1
First Quarter
Oct 8
Full
Oct 15
Last Quarter

Today's Extremes

State Highs State Lows

Community

WunderPhotos

Upload Photos

1,754,157 photos uploaded!

WunderBlogs® & News

Nearby

Snow Depth

Station Depth Elevation
CSS Lab 1 in 6900 ft
Leavitt Meadows 1 in 7200 ft
Tahoe City Cross 0 in 6750 ft
Adin Mountain 0 in 6200 ft
Summit Meadow 0 in 9122 ft

Earthquake Activity

City Distance Mag. Time & Date
No recent earthquake activity has been reported nearby.
Minimum magnitude displayed is 2.5.

Coastal Water Temperatures

Place Temperature
Crescent City, CA 60.1 °F
North Spit, CA 59.0 °F
Port Orford, OR 55.9 °F

Nearby Weather Stations